Time,TemperatureF,DewpointF,PressureIn,WindDirection,WindDirectionDegrees,WindSpeedMPH,WindSpeedGustMPH,Humidity,HourlyPrecipIn,Conditions,Clouds,dailyrainin,SoftwareType,DateUTC
2017-05-26 00:01:00,53.0,50.2,29.88,West,271,3.0,4.0,90,0.00,,OVC020,0.00,VWS V15.00,2017-05-26 07:01:00,
2017-05-26 00:06:00,53.0,50.2,29.88,West,268,2.0,5.0,90,0.00,,OVC020,0.00,VWS V15.00,2017-05-26 07:06:00,
2017-05-26 00:11:00,52.9,50.0,29.88,West,278,2.0,5.0,90,0.00,,OVC020,0.00,VWS V15.00,2017-05-26 07:11:00,
2017-05-26 00:16:00,52.9,50.0,29.88,WNW,284,1.0,2.0,90,0.00,,OVC020,0.00,VWS V15.00,2017-05-26 07:16:00,
2017-05-26 00:21:00,52.9,50.0,29.88,West,278,1.0,3.0,90,0.00,,OVC020,0.00,VWS V15.00,2017-05-26 07:21:00,
2017-05-26 00:26:00,52.9,50.0,29.88,West,270,1.0,3.0,90,0.00,,OVC020,0.00,VWS V15.00,2017-05-26 07:26:00,
2017-05-26 00:31:00,52.8,50.0,29.88,WNW,291,1.0,2.0,90,0.00,,OVC020,0.00,VWS V15.00,2017-05-26 07:31:00,
2017-05-26 00:36:00,52.8,50.0,29.88,WNW,289,1.0,3.0,90,0.00,,OVC020,0.00,VWS V15.00,2017-05-26 07:36:00,
2017-05-26 00:41:00,52.8,50.0,29.88,WNW,291,0.0,3.0,90,0.00,,OVC020,0.00,VWS V15.00,2017-05-26 07:41:00,
2017-05-26 00:46:00,52.8,50.0,29.88,WNW,285,2.0,2.0,90,0.00,,OVC018,0.00,VWS V15.00,2017-05-26 07:46:00,
2017-05-26 00:51:00,52.7,49.8,29.88,West,259,1.0,2.0,90,0.00,,OVC018,0.00,VWS V15.00,2017-05-26 07:51:00,
2017-05-26 00:56:00,52.6,49.8,29.88,West,276,2.0,3.0,90,0.00,,OVC018,0.00,VWS V15.00,2017-05-26 07:56:00,
2017-05-26 01:06:00,52.6,49.8,29.88,West,280,2.0,3.0,90,0.00,,OVC018,0.00,VWS V15.00,2017-05-26 08:06:00,
2017-05-26 01:11:00,52.5,49.7,29.88,WNW,285,0.0,3.0,90,0.00,,OVC018,0.00,VWS V15.00,2017-05-26 08:11:00,
2017-05-26 01:16:00,52.5,49.7,29.88,WNW,287,0.0,0.0,90,0.00,,OVC018,0.00,VWS V15.00,2017-05-26 08:16:00,
2017-05-26 01:21:00,52.5,49.7,29.88,West,260,1.0,1.0,90,0.00,,OVC018,0.00,VWS V15.00,2017-05-26 08:21:00,
2017-05-26 01:26:00,52.5,50.0,29.88,WSW,257,0.0,2.0,91,0.00,,OVC018,0.00,VWS V15.00,2017-05-26 08:26:00,
2017-05-26 01:31:00,52.5,50.0,29.88,WSW,255,0.0,0.0,91,0.00,,OVC018,0.00,VWS V15.00,2017-05-26 08:31:00,
2017-05-26 01:36:00,52.4,49.8,29.88,WSW,253,0.0,1.0,91,0.00,,OVC018,0.00,VWS V15.00,2017-05-26 08:36:00,
2017-05-26 01:41:00,52.3,49.8,29.88,West,260,0.0,1.0,91,0.00,,OVC018,0.00,VWS V15.00,2017-05-26 08:41:00,
2017-05-26 01:46:00,52.3,49.8,29.88,West,273,1.0,1.0,91,0.00,,OVC017,0.00,VWS V15.00,2017-05-26 08:46:00,
2017-05-26 01:51:00,52.3,49.8,29.88,West,262,0.0,1.0,91,0.00,,OVC017,0.00,VWS V15.00,2017-05-26 08:51:00,
2017-05-26 01:56:00,52.4,49.8,29.88,SW,233,0.0,1.0,91,0.00,,OVC017,0.00,VWS V15.00,2017-05-26 08:56:00,
2017-05-26 02:02:00,52.4,49.8,29.89,SW,229,0.0,0.0,91,0.00,,OVC017,0.00,VWS V15.00,2017-05-26 09:02:00,
2017-05-26 02:07:00,52.4,49.8,29.88,SW,233,0.0,0.0,91,0.00,,OVC017,0.00,VWS V15.00,2017-05-26 09:07:00,
2017-05-26 02:12:00,52.4,50.2,29.88,WSW,240,0.0,0.0,92,0.00,,OVC017,0.00,VWS V15.00,2017-05-26 09:12:00,
2017-05-26 02:17:00,52.3,50.0,29.88,WSW,257,0.0,0.0,92,0.00,,OVC017,0.00,VWS V15.00,2017-05-26 09:17:00,
2017-05-26 02:22:00,52.2,50.0,29.88,West,263,0.0,0.0,92,0.00,,OVC017,0.00,VWS V15.00,2017-05-26 09:22:00,
2017-05-26 02:27:00,52.2,50.0,29.88,WSW,245,0.0,0.0,92,0.00,,OVC017,0.00,VWS V15.00,2017-05-26 09:27:00,
2017-05-26 02:32:00,52.2,50.0,29.88,SW,232,0.0,0.0,92,0.00,,OVC017,0.00,VWS V15.00,2017-05-26 09:32:00,
2017-05-26 02:37:00,52.2,50.0,29.88,WSW,254,0.0,0.0,92,0.00,,OVC017,0.00,VWS V15.00,2017-05-26 09:37:00,
2017-05-26 02:42:00,52.2,50.0,29.88,West,270,0.0,1.0,92,0.00,,OVC017,0.00,VWS V15.00,2017-05-26 09:42:00,
2017-05-26 02:47:00,52.1,49.8,29.89,WSW,254,0.0,2.0,92,0.00,,OVC016,0.00,VWS V15.00,2017-05-26 09:47:00,
2017-05-26 02:52:00,52.1,49.8,29.89,WSW,243,2.0,4.0,92,0.00,,OVC016,0.00,VWS V15.00,2017-05-26 09:52:00,
2017-05-26 02:57:00,52.1,49.8,29.89,WSW,248,0.0,4.0,92,0.00,,OVC016,0.00,VWS V15.00,2017-05-26 09:57:00,
2017-05-26 03:02:00,52.1,49.8,29.88,WSW,246,1.0,2.0,92,0.00,,OVC016,0.00,VWS V15.00,2017-05-26 10:02:00,
2017-05-26 03:07:00,52.0,49.8,29.88,West,274,1.0,2.0,92,0.00,,OVC016,0.00,VWS V15.00,2017-05-26 10:07:00,
2017-05-26 03:12:00,51.9,49.9,29.88,West,274,0.0,2.0,93,0.00,,OVC016,0.00,VWS V15.00,2017-05-26 10:12:00,
2017-05-26 03:17:00,51.8,49.8,29.88,West,278,0.0,0.0,93,0.00,,OVC016,0.00,VWS V15.00,2017-05-26 10:17:00,
2017-05-26 03:22:00,51.8,49.8,29.88,WSW,253,0.0,1.0,93,0.00,,OVC016,0.00,VWS V15.00,2017-05-26 10:22:00,
2017-05-26 03:27:00,51.8,49.8,29.89,West,276,0.0,1.0,93,0.00,,OVC016,0.00,VWS V15.00,2017-05-26 10:27:00,
2017-05-26 03:37:00,51.7,49.8,29.88,WNW,285,0.0,0.0,93,0.00,,OVC016,0.00,VWS V15.00,2017-05-26 10:37:00,
2017-05-26 03:42:00,51.7,49.8,29.88,WNW,284,0.0,0.0,93,0.00,,OVC016,0.00,VWS V15.00,2017-05-26 10:42:00,
2017-05-26 03:47:00,51.7,49.8,29.88,WNW,284,0.0,0.0,93,0.00,,OVC016,0.00,VWS V15.00,2017-05-26 10:47:00,
2017-05-26 03:52:00,51.6,49.7,29.88,WNW,284,0.0,0.0,93,0.00,,OVC016,0.00,VWS V15.00,2017-05-26 10:52:00,
2017-05-26 03:57:00,51.6,49.7,29.88,WNW,284,0.0,0.0,93,0.00,,OVC016,0.00,VWS V15.00,2017-05-26 10:57:00,
2017-05-26 04:02:00,51.6,49.7,29.89,WNW,284,0.0,0.0,93,0.00,,OVC016,0.00,VWS V15.00,2017-05-26 11:02:00,
2017-05-26 04:07:00,51.6,49.7,29.89,WNW,284,0.0,0.0,93,0.00,,OVC016,0.00,VWS V15.00,2017-05-26 11:07:00,
2017-05-26 04:12:00,51.6,49.7,29.89,WNW,284,0.0,0.0,93,0.00,,OVC016,0.00,VWS V15.00,2017-05-26 11:12:00,
2017-05-26 04:17:00,51.7,49.8,29.89,WNW,284,0.0,0.0,93,0.00,,OVC016,0.00,VWS V15.00,2017-05-26 11:17:00,
2017-05-26 04:22:00,51.8,49.8,29.89,WNW,284,0.0,0.0,93,0.00,,OVC016,0.00,VWS V15.00,2017-05-26 11:22:00,
2017-05-26 04:32:00,51.8,49.8,29.89,WNW,284,0.0,0.0,93,0.00,,OVC016,0.00,VWS V15.00,2017-05-26 11:32:00,
2017-05-26 04:37:00,51.8,49.8,29.89,WNW,285,0.0,0.0,93,0.00,,OVC016,0.00,VWS V15.00,2017-05-26 11:37:00,
2017-05-26 04:42:00,51.8,49.8,29.89,WNW,285,0.0,0.0,93,0.00,,OVC016,0.00,VWS V15.00,2017-05-26 11:42:00,
2017-05-26 04:47:00,51.8,49.8,29.89,WNW,285,0.0,0.0,93,0.00,,OVC015,0.00,VWS V15.00,2017-05-26 11:47:00,
2017-05-26 04:52:00,51.7,49.8,29.89,WNW,285,0.0,0.0,93,0.00,,OVC015,0.00,VWS V15.00,2017-05-26 11:52:00,
2017-05-26 04:57:00,51.6,49.7,29.89,WNW,285,0.0,0.0,93,0.00,,OVC015,0.00,VWS V15.00,2017-05-26 11:57:00,
2017-05-26 05:02:00,51.5,49.5,29.89,WNW,285,0.0,0.0,93,0.00,,OVC015,0.00,VWS V15.00,2017-05-26 12:02:00,
2017-05-26 05:07:00,51.5,49.5,29.89,WNW,285,0.0,0.0,93,0.00,,OVC015,0.00,VWS V15.00,2017-05-26 12:07:00,
2017-05-26 05:13:00,51.5,49.5,29.90,WNW,285,0.0,0.0,93,0.00,,OVC015,0.00,VWS V15.00,2017-05-26 12:13:00,
2017-05-26 05:18:00,51.4,49.5,29.90,WNW,284,0.0,0.0,93,0.00,,OVC015,0.00,VWS V15.00,2017-05-26 12:18:00,
2017-05-26 05:23:00,51.3,49.3,29.90,WNW,284,0.0,0.0,93,0.00,,OVC015,0.00,VWS V15.00,2017-05-26 12:23:00,
2017-05-26 05:28:00,51.4,49.5,29.90,WNW,284,0.0,0.0,93,0.00,,OVC015,0.00,VWS V15.00,2017-05-26 12:28:00,
2017-05-26 05:33:00,51.4,49.5,29.90,WNW,284,0.0,0.0,93,0.00,,OVC015,0.00,VWS V15.00,2017-05-26 12:33:00,
2017-05-26 05:38:00,51.4,49.5,29.90,WNW,284,0.0,0.0,93,0.00,,OVC015,0.00,VWS V15.00,2017-05-26 12:38:00,
2017-05-26 05:43:00,51.4,49.5,29.91,WNW,284,0.0,0.0,93,0.00,,OVC015,0.00,VWS V15.00,2017-05-26 12:43:00,
2017-05-26 05:48:00,51.4,49.5,29.91,WNW,284,0.0,0.0,93,0.00,,OVC016,0.00,VWS V15.00,2017-05-26 12:48:00,
2017-05-26 05:53:00,51.4,49.5,29.91,WNW,284,0.0,0.0,93,0.00,,OVC016,0.00,VWS V15.00,2017-05-26 12:53:00,
2017-05-26 05:58:00,51.4,49.7,29.91,WNW,284,0.0,0.0,94,0.00,,OVC016,0.00,VWS V15.00,2017-05-26 12:58:00,
2017-05-26 06:03:00,51.4,49.7,29.91,WNW,284,0.0,0.0,94,0.00,,OVC016,0.00,VWS V15.00,2017-05-26 13:03:00,
2017-05-26 06:08:00,51.5,49.8,29.92,WNW,284,0.0,0.0,94,0.00,,OVC016,0.00,VWS V15.00,2017-05-26 13:08:00,
2017-05-26 06:13:00,51.5,49.8,29.91,WNW,284,0.0,0.0,94,0.00,,OVC016,0.00,VWS V15.00,2017-05-26 13:13:00,
2017-05-26 06:18:00,51.3,49.3,29.92,WNW,283,0.0,0.0,93,0.00,,OVC016,0.00,VWS V15.00,2017-05-26 13:18:00,
2017-05-26 06:23:00,51.3,49.6,29.92,WNW,284,0.0,0.0,94,0.00,,OVC016,0.00,VWS V15.00,2017-05-26 13:23:00,
2017-05-26 06:28:00,51.3,49.6,29.92,West,281,0.0,0.0,94,0.00,,OVC016,0.00,VWS V15.00,2017-05-26 13:28:00,
2017-05-26 06:33:00,51.2,49.2,29.92,West,264,0.0,0.0,93,0.00,,OVC016,0.00,VWS V15.00,2017-05-26 13:33:00,
2017-05-26 06:38:00,51.2,49.5,29.92,West,264,0.0,0.0,94,0.00,,OVC016,0.00,VWS V15.00,2017-05-26 13:38:00,
2017-05-26 06:43:00,51.2,49.5,29.92,West,262,0.0,0.0,94,0.00,,OVC016,0.00,VWS V15.00,2017-05-26 13:43:00,
2017-05-26 06:48:00,51.2,49.2,29.92,West,263,0.0,0.0,93,0.00,,OVC019,0.00,VWS V15.00,2017-05-26 13:48:00,
2017-05-26 06:53:00,51.3,49.6,29.92,West,263,0.0,0.0,94,0.00,,OVC019,0.00,VWS V15.00,2017-05-26 13:53:00,
2017-05-26 06:58:00,51.3,49.6,29.93,West,263,0.0,0.0,94,0.00,,OVC019,0.00,VWS V15.00,2017-05-26 13:58:00,
2017-05-26 07:03:00,51.4,49.5,29.93,West,263,0.0,0.0,93,0.00,,OVC019,0.00,VWS V15.00,2017-05-26 14:03:00,
2017-05-26 07:08:00,51.4,49.5,29.93,West,262,0.0,0.0,93,0.00,,OVC019,0.00,VWS V15.00,2017-05-26 14:08:00,
2017-05-26 07:13:00,51.5,49.5,29.93,West,263,0.0,0.0,93,0.00,,OVC019,0.00,VWS V15.00,2017-05-26 14:13:00,
2017-05-26 07:18:00,51.7,49.8,29.93,West,263,0.0,0.0,93,0.00,,OVC019,0.00,VWS V15.00,2017-05-26 14:18:00,
2017-05-26 07:23:00,51.8,49.8,29.93,West,264,0.0,0.0,93,0.00,,OVC019,0.00,VWS V15.00,2017-05-26 14:23:00,
2017-05-26 07:28:00,51.9,49.9,29.93,West,264,0.0,0.0,93,0.00,,OVC019,0.00,VWS V15.00,2017-05-26 14:28:00,
2017-05-26 07:33:00,52.0,50.0,29.94,West,264,0.0,0.0,93,0.00,,OVC019,0.00,VWS V15.00,2017-05-26 14:33:00,
2017-05-26 07:38:00,52.0,50.0,29.94,West,264,0.0,0.0,93,0.00,,OVC019,0.00,VWS V15.00,2017-05-26 14:38:00,
2017-05-26 07:43:00,52.1,50.1,29.94,West,263,0.0,0.0,93,0.00,,OVC019,0.00,VWS V15.00,2017-05-26 14:43:00,
2017-05-26 07:48:00,52.3,50.3,29.94,West,263,0.0,0.0,93,0.00,,OVC019,0.00,VWS V15.00,2017-05-26 14:48:00,
2017-05-26 07:53:00,52.4,50.2,29.94,North,356,0.0,0.0,92,0.00,,OVC019,0.00,VWS V15.00,2017-05-26 14:53:00,
2017-05-26 07:59:00,52.6,50.3,29.94,North,7,0.0,0.0,92,0.00,,OVC019,0.00,VWS V15.00,2017-05-26 14:59:00,
2017-05-26 08:03:00,52.7,50.2,29.94,North,9,0.0,0.0,91,0.00,,OVC019,0.00,VWS V15.00,2017-05-26 15:03:00,
2017-05-26 08:05:00,52.7,50.2,29.94,North,9,0.0,0.0,91,0.00,,OVC019,0.00,VWS V15.00,2017-05-26 15:05:00,
2017-05-26 08:10:00,52.9,50.3,29.95,ENE,77,0.0,0.0,91,0.00,,OVC019,0.00,VWS V15.00,2017-05-26 15:10:00,
2017-05-26 08:15:00,53.0,50.2,29.95,East,82,0.0,0.0,90,0.00,,OVC019,0.00,VWS V15.00,2017-05-26 15:15:00,
2017-05-26 08:20:00,53.3,50.5,29.95,East,85,0.0,0.0,90,0.00,,OVC019,0.00,VWS V15.00,2017-05-26 15:20:00,
2017-05-26 08:25:00,53.5,50.3,29.95,East,84,0.0,0.0,89,0.00,,OVC019,0.00,VWS V15.00,2017-05-26 15:25:00,
2017-05-26 08:30:00,53.7,50.5,29.95,East,95,0.0,0.0,89,0.00,,OVC019,0.00,VWS V15.00,2017-05-26 15:30:00,
2017-05-26 08:35:00,53.8,50.3,29.95,SE,144,0.0,0.0,88,0.00,,OVC019,0.00,VWS V15.00,2017-05-26 15:35:00,
2017-05-26 08:40:00,53.9,50.4,29.95,WSW,245,2.0,3.0,88,0.00,,OVC019,0.00,VWS V15.00,2017-05-26 15:40:00,
2017-05-26 08:45:00,53.8,50.3,29.95,WSW,240,0.0,0.0,88,0.00,,OVC021,0.00,VWS V15.00,2017-05-26 15:45:00,
2017-05-26 08:50:00,53.8,50.3,29.96,WSW,256,0.0,1.0,88,0.00,,OVC021,0.00,VWS V15.00,2017-05-26 15:50:00,
2017-05-26 08:55:00,54.1,50.6,29.96,WSW,246,0.0,2.0,88,0.00,,OVC021,0.00,VWS V15.00,2017-05-26 15:55:00,
2017-05-26 09:00:00,54.2,50.4,29.96,SW,224,0.0,0.0,87,0.00,,OVC021,0.00,VWS V15.00,2017-05-26 16:00:00,
2017-05-26 09:05:00,54.5,50.7,29.96,ESE,110,0.0,2.0,87,0.00,,OVC021,0.00,VWS V15.00,2017-05-26 16:05:00,
2017-05-26 09:10:00,54.6,50.5,29.96,SSE,160,0.0,2.0,86,0.00,,OVC021,0.00,VWS V15.00,2017-05-26 16:10:00,
2017-05-26 09:15:00,54.8,50.4,29.97,SW,236,0.0,0.0,85,0.00,,OVC021,0.00,VWS V15.00,2017-05-26 16:15:00,
2017-05-26 09:20:00,55.0,50.3,29.97,SW,233,0.0,1.0,84,0.00,,OVC021,0.00,VWS V15.00,2017-05-26 16:20:00,
2017-05-26 09:25:00,55.0,50.6,29.96,WSW,238,1.0,3.0,85,0.00,,OVC021,0.00,VWS V15.00,2017-05-26 16:25:00,
2017-05-26 09:31:00,55.0,50.6,29.97,SW,233,2.0,2.0,85,0.00,,OVC021,0.00,VWS V15.00,2017-05-26 16:31:00,
2017-05-26 09:36:00,54.8,50.4,29.97,SW,218,2.0,5.0,85,0.00,,OVC021,0.00,VWS V15.00,2017-05-26 16:36:00,
2017-05-26 09:41:00,54.8,50.7,29.97,WSW,239,1.0,5.0,86,0.00,,OVC021,0.00,VWS V15.00,2017-05-26 16:41:00,
2017-05-26 09:46:00,54.8,50.7,29.97,SW,215,0.0,1.0,86,0.00,,OVC020,0.00,VWS V15.00,2017-05-26 16:46:00,
2017-05-26 09:51:00,55.0,50.6,29.97,WSW,257,0.0,1.0,85,0.00,,OVC020,0.00,VWS V15.00,2017-05-26 16:51:00,
2017-05-26 09:56:00,55.4,51.0,29.97,West,276,0.0,1.0,85,0.00,,OVC020,0.00,VWS V15.00,2017-05-26 16:56:00,
2017-05-26 10:01:00,55.9,51.1,29.97,SSW,205,0.0,0.0,84,0.00,,OVC020,0.00,VWS V15.00,2017-05-26 17:01:00,
2017-05-26 10:06:00,56.6,51.2,29.97,SSW,195,0.0,0.0,82,0.00,,OVC020,0.00,VWS V15.00,2017-05-26 17:06:00,
2017-05-26 10:11:00,56.9,51.5,29.97,SE,138,1.0,3.0,82,0.00,,OVC020,0.00,VWS V15.00,2017-05-26 17:11:00,
2017-05-26 10:16:00,57.2,51.1,29.97,SW,221,1.0,2.0,80,0.00,,OVC020,0.00,VWS V15.00,2017-05-26 17:16:00,
2017-05-26 10:21:00,57.5,51.0,29.97,SW,215,1.0,3.0,79,0.00,,OVC020,0.00,VWS V15.00,2017-05-26 17:21:00,
2017-05-26 10:26:00,57.5,51.0,29.98,West,266,4.0,4.0,79,0.00,,OVC020,0.00,VWS V15.00,2017-05-26 17:26:00,
2017-05-26 10:31:00,57.1,51.3,29.98,SW,226,4.0,6.0,81,0.00,,OVC020,0.00,VWS V15.00,2017-05-26 17:31:00,
2017-05-26 10:36:00,56.9,50.8,29.98,WSW,243,2.0,6.0,80,0.00,,OVC020,0.00,VWS V15.00,2017-05-26 17:36:00,
2017-05-26 10:41:00,56.9,51.5,29.98,SE,143,0.0,6.0,82,0.00,,OVC020,0.00,VWS V15.00,2017-05-26 17:41:00,
2017-05-26 10:46:00,57.0,50.9,29.98,SSW,210,1.0,2.0,80,0.00,,OVC022,0.00,VWS V15.00,2017-05-26 17:46:00,
2017-05-26 10:51:00,57.0,51.2,29.98,SSW,197,3.0,6.0,81,0.00,,OVC022,0.00,VWS V15.00,2017-05-26 17:51:00,
2017-05-26 10:56:00,57.0,50.9,29.98,WSW,258,2.0,6.0,80,0.00,,OVC022,0.00,VWS V15.00,2017-05-26 17:56:00,
2017-05-26 11:01:00,57.1,51.7,29.98,SW,229,5.0,5.0,82,0.00,,OVC022,0.00,VWS V15.00,2017-05-26 18:01:00,
2017-05-26 11:06:00,57.2,51.4,29.99,SW,220,1.0,5.0,81,0.00,,OVC022,0.00,VWS V15.00,2017-05-26 18:06:00,
2017-05-26 11:11:00,57.3,51.2,29.99,West,276,1.0,6.0,80,0.00,,OVC022,0.00,VWS V15.00,2017-05-26 18:11:00,
2017-05-26 11:16:00,57.4,51.3,29.99,SW,231,4.0,4.0,80,0.00,,OVC022,0.00,VWS V15.00,2017-05-26 18:16:00,
2017-05-26 11:21:00,57.6,51.1,29.99,SW,229,4.0,6.0,79,0.00,,OVC022,0.00,VWS V15.00,2017-05-26 18:21:00,
2017-05-26 11:26:00,57.8,51.3,29.99,SW,232,3.0,7.0,79,0.00,,OVC022,0.00,VWS V15.00,2017-05-26 18:26:00,
2017-05-26 11:31:00,57.8,51.7,29.99,SW,215,3.0,4.0,80,0.00,,OVC022,0.00,VWS V15.00,2017-05-26 18:31:00,
2017-05-26 11:36:00,58.1,51.6,29.99,SW,217,2.0,4.0,79,0.00,,OVC022,0.00,VWS V15.00,2017-05-26 18:36:00,
2017-05-26 11:41:00,58.2,51.4,29.99,SW,236,2.0,6.0,78,0.00,,OVC022,0.00,VWS V15.00,2017-05-26 18:41:00,
2017-05-26 11:46:00,58.4,51.6,29.99,SW,226,3.0,5.0,78,0.00,,OVC025,0.00,VWS V15.00,2017-05-26 18:46:00,
2017-05-26 11:51:00,58.3,51.1,29.99,SSW,194,3.0,7.0,77,0.00,,OVC025,0.00,VWS V15.00,2017-05-26 18:51:00,
2017-05-26 11:56:00,58.6,52.1,29.99,WSW,250,4.0,7.0,79,0.00,,OVC025,0.00,VWS V15.00,2017-05-26 18:56:00,
2017-05-26 12:01:00,58.6,51.4,29.99,WSW,252,0.0,4.0,77,0.00,,OVC025,0.00,VWS V15.00,2017-05-26 19:01:00,
2017-05-26 12:11:00,59.9,52.0,30.00,ESE,104,3.0,4.0,75,0.00,,OVC025,0.00,VWS V15.00,2017-05-26 19:11:00,
2017-05-26 12:16:00,60.2,51.5,30.00,SE,131,0.0,2.0,73,0.00,,OVC025,0.00,VWS V15.00,2017-05-26 19:16:00,
2017-05-26 12:21:00,60.6,52.6,30.00,SW,231,4.0,4.0,75,0.00,,OVC025,0.00,VWS V15.00,2017-05-26 19:21:00,
2017-05-26 12:27:00,60.7,52.4,30.00,SSE,167,2.0,4.0,74,0.00,,OVC025,0.00,VWS V15.00,2017-05-26 19:27:00,
2017-05-26 12:32:00,60.7,52.7,30.00,SW,218,1.0,5.0,75,0.00,,OVC025,0.00,VWS V15.00,2017-05-26 19:32:00,
2017-05-26 12:37:00,60.7,52.0,30.00,SW,236,6.0,6.0,73,0.00,,OVC025,0.00,VWS V15.00,2017-05-26 19:37:00,
2017-05-26 12:42:00,60.3,52.3,30.00,WSW,245,4.0,7.0,75,0.00,,OVC025,0.00,VWS V15.00,2017-05-26 19:42:00,
2017-05-26 12:47:00,60.2,52.3,30.00,SW,233,6.0,6.0,75,0.00,,OVC028,0.00,VWS V15.00,2017-05-26 19:47:00,
2017-05-26 12:52:00,60.2,52.3,30.00,WSW,258,3.0,7.0,75,0.00,,OVC028,0.00,VWS V15.00,2017-05-26 19:52:00,
2017-05-26 12:57:00,60.2,52.3,30.00,WSW,242,7.0,8.0,75,0.00,,OVC028,0.00,VWS V15.00,2017-05-26 19:57:00,
2017-05-26 13:02:00,60.6,52.6,30.00,SW,221,4.0,5.0,75,0.00,,OVC028,0.00,VWS V15.00,2017-05-26 20:02:00,
2017-05-26 13:07:00,60.7,52.0,30.00,SW,215,4.0,5.0,73,0.00,,OVC028,0.00,VWS V15.00,2017-05-26 20:07:00,
2017-05-26 13:12:00,60.7,52.4,30.00,SSW,207,6.0,9.0,74,0.00,,OVC028,0.00,VWS V15.00,2017-05-26 20:12:00,
2017-05-26 13:13:00,60.7,52.4,30.00,SW,221,3.0,9.0,74,0.00,,OVC028,0.00,VWS V15.00,2017-05-26 20:13:00,
2017-05-26 13:18:00,60.8,52.5,30.00,SW,225,5.0,9.0,74,0.00,,OVC028,0.00,VWS V15.00,2017-05-26 20:18:00,
2017-05-26 13:23:00,60.9,52.2,30.00,SSW,200,5.0,10.0,73,0.00,,OVC028,0.00,VWS V15.00,2017-05-26 20:23:00,
2017-05-26 13:28:00,61.0,52.3,30.00,WSW,249,8.0,10.0,73,0.00,,OVC028,0.00,VWS V15.00,2017-05-26 20:28:00,
2017-05-26 13:33:00,61.2,52.5,30.00,SW,224,7.0,11.0,73,0.00,,OVC028,0.00,VWS V15.00,2017-05-26 20:33:00,
2017-05-26 13:38:00,61.5,52.8,30.00,South,191,4.0,11.0,73,0.00,,OVC028,0.00,VWS V15.00,2017-05-26 20:38:00,
2017-05-26 13:44:00,61.7,53.0,30.00,SW,226,9.0,11.0,73,0.00,,OVC028,0.00,VWS V15.00,2017-05-26 20:44:00,
2017-05-26 13:49:00,61.8,53.1,30.00,WSW,245,9.0,10.0,73,0.00,,OVC032,0.00,VWS V15.00,2017-05-26 20:49:00,
2017-05-26 13:54:00,62.0,52.9,30.00,SW,229,1.0,10.0,72,0.00,,OVC032,0.00,VWS V15.00,2017-05-26 20:54:00,
2017-05-26 13:59:00,62.4,52.9,30.00,SW,235,5.0,10.0,71,0.00,,OVC032,0.00,VWS V15.00,2017-05-26 20:59:00,
2017-05-26 14:04:00,62.4,53.6,30.00,WSW,239,4.0,11.0,73,0.00,,OVC032,0.00,VWS V15.00,2017-05-26 21:04:00,
2017-05-26 14:09:00,62.2,52.3,30.00,SW,230,5.0,11.0,70,0.00,,OVC032,0.00,VWS V15.00,2017-05-26 21:09:00,
2017-05-26 14:14:00,62.2,52.7,30.00,South,191,5.0,11.0,71,0.00,,OVC032,0.00,VWS V15.00,2017-05-26 21:14:00,
2017-05-26 14:19:00,62.2,53.1,30.00,SW,235,5.0,6.0,72,0.00,,OVC032,0.00,VWS V15.00,2017-05-26 21:19:00,
2017-05-26 14:24:00,62.1,52.6,30.00,WSW,248,6.0,9.0,71,0.00,,OVC032,0.00,VWS V15.00,2017-05-26 21:24:00,
2017-05-26 14:29:00,62.1,53.0,30.00,WSW,243,5.0,9.0,72,0.00,,OVC032,0.00,VWS V15.00,2017-05-26 21:29:00,
2017-05-26 14:34:00,62.0,52.9,30.00,WSW,240,5.0,10.0,72,0.00,,OVC032,0.00,VWS V15.00,2017-05-26 21:34:00,
2017-05-26 14:39:00,62.1,53.0,30.00,WSW,243,10.0,12.0,72,0.00,,OVC032,0.00,VWS V15.00,2017-05-26 21:39:00,
2017-05-26 14:44:00,62.0,52.9,30.00,WSW,245,8.0,12.0,72,0.00,,OVC032,0.00,VWS V15.00,2017-05-26 21:44:00,
2017-05-26 14:49:00,62.1,52.2,30.00,WSW,253,4.0,9.0,70,0.00,,OVC034,0.00,VWS V15.00,2017-05-26 21:49:00,
2017-05-26 14:54:00,62.2,52.3,30.00,West,262,7.0,9.0,70,0.00,,OVC034,0.00,VWS V15.00,2017-05-26 21:54:00,
2017-05-26 14:59:00,62.4,54.0,30.00,SSW,207,9.0,11.0,74,0.00,,OVC034,0.00,VWS V15.00,2017-05-26 21:59:00,
2017-05-26 15:04:00,62.3,53.5,30.00,WSW,246,8.0,10.0,73,0.00,,OVC034,0.00,VWS V15.00,2017-05-26 22:04:00,
2017-05-26 15:10:00,62.1,53.7,30.00,West,267,7.0,10.0,74,0.00,,OVC034,0.00,VWS V15.00,2017-05-26 22:10:00,
2017-05-26 15:15:00,61.8,53.4,30.01,SW,236,6.0,11.0,74,0.00,,OVC034,0.00,VWS V15.00,2017-05-26 22:15:00,
2017-05-26 15:20:00,62.0,54.0,30.00,West,276,2.0,8.0,75,0.00,,OVC034,0.00,VWS V15.00,2017-05-26 22:20:00,
2017-05-26 15:25:00,62.2,53.5,30.00,WNW,299,3.0,8.0,73,0.00,,OVC034,0.00,VWS V15.00,2017-05-26 22:25:00,
2017-05-26 15:30:00,62.6,54.6,30.00,SW,233,4.0,8.0,75,0.00,,OVC034,0.00,VWS V15.00,2017-05-26 22:30:00,
2017-05-26 15:35:00,62.3,53.9,30.00,WNW,283,5.0,9.0,74,0.00,,OVC034,0.00,VWS V15.00,2017-05-26 22:35:00,
2017-05-26 15:40:00,62.0,53.6,30.00,West,265,2.0,10.0,74,0.00,,OVC034,0.00,VWS V15.00,2017-05-26 22:40:00,
2017-05-26 15:45:00,61.8,53.4,30.01,WSW,256,8.0,10.0,74,0.00,,OVC035,0.00,VWS V15.00,2017-05-26 22:45:00,
2017-05-26 15:50:00,61.6,54.0,30.00,West,281,4.0,10.0,76,0.00,,OVC035,0.00,VWS V15.00,2017-05-26 22:50:00,
2017-05-26 15:55:00,61.8,53.8,30.00,NW,309,4.0,10.0,75,0.00,,OVC035,0.00,VWS V15.00,2017-05-26 22:55:00,
2017-05-26 16:00:00,61.5,53.9,30.00,West,277,5.0,5.0,76,0.00,,OVC035,0.00,VWS V15.00,2017-05-26 23:00:00,
2017-05-26 16:05:00,61.3,53.7,30.00,West,259,8.0,10.0,76,0.00,,OVC035,0.00,VWS V15.00,2017-05-26 23:05:00,
2017-05-26 16:10:00,61.3,53.7,30.00,West,273,5.0,11.0,76,0.00,,OVC035,0.00,VWS V15.00,2017-05-26 23:10:00,
2017-05-26 16:15:00,61.6,53.6,30.00,NW,315,3.0,6.0,75,0.00,,OVC035,0.00,VWS V15.00,2017-05-26 23:15:00,
2017-05-26 16:20:00,61.5,53.2,30.00,West,281,2.0,9.0,74,0.00,,OVC035,0.00,VWS V15.00,2017-05-26 23:20:00,
2017-05-26 16:25:00,61.5,53.2,30.00,West,278,8.0,9.0,74,0.00,,OVC035,0.00,VWS V15.00,2017-05-26 23:25:00,
2017-05-26 16:30:00,61.1,53.1,30.00,NW,315,2.0,5.0,75,0.00,,OVC035,0.00,VWS V15.00,2017-05-26 23:30:00,
2017-05-26 16:35:00,60.9,52.9,30.00,WNW,301,4.0,9.0,75,0.00,,OVC035,0.00,VWS V15.00,2017-05-26 23:35:00,
2017-05-26 16:40:00,60.7,53.1,30.00,West,280,6.0,9.0,76,0.00,,OVC035,0.00,VWS V15.00,2017-05-26 23:40:00,
2017-05-26 16:45:00,60.7,53.1,30.00,WNW,297,3.0,8.0,76,0.00,,OVC035,0.00,VWS V15.00,2017-05-26 23:45:00,
2017-05-26 16:50:00,60.5,53.6,30.00,WNW,302,3.0,8.0,78,0.00,,OVC035,0.00,VWS V15.00,2017-05-26 23:50:00,
2017-05-26 16:55:00,60.7,54.2,30.00,WNW,296,4.0,10.0,79,0.00,,OVC035,0.00,VWS V15.00,2017-05-26 23:55:00,
2017-05-26 17:00:00,60.6,53.4,30.00,WNW,283,3.0,7.0,77,0.00,,OVC035,0.00,VWS V15.00,2017-05-27 00:00:00,
2017-05-26 17:05:00,60.1,52.5,30.00,NW,323,4.0,10.0,76,0.00,,OVC035,0.00,VWS V15.00,2017-05-27 00:05:00,
2017-05-26 17:10:00,60.1,53.6,30.00,WNW,290,9.0,10.0,79,0.00,,OVC035,0.00,VWS V15.00,2017-05-27 00:10:00,
2017-05-26 17:15:00,59.9,52.7,30.01,WNW,291,4.0,6.0,77,0.00,,BKN035,0.00,VWS V15.00,2017-05-27 00:15:00,
2017-05-26 17:20:00,60.0,53.1,30.00,WNW,295,6.0,11.0,78,0.00,,BKN035,0.00,VWS V15.00,2017-05-27 00:20:00,
2017-05-26 17:25:00,59.9,53.0,30.01,WNW,288,6.0,11.0,78,0.00,,BKN035,0.00,VWS V15.00,2017-05-27 00:25:00,
2017-05-26 17:30:00,59.9,53.7,30.00,WNW,288,6.0,6.0,80,0.00,,BKN035,0.00,VWS V15.00,2017-05-27 00:30:00,
2017-05-26 17:35:00,59.7,53.2,30.01,West,276,2.0,8.0,79,0.00,,BKN035,0.00,VWS V15.00,2017-05-27 00:35:00,
2017-05-26 17:40:00,59.9,53.4,30.01,WNW,291,9.0,10.0,79,0.00,,BKN035,0.00,VWS V15.00,2017-05-27 00:40:00,
2017-05-26 17:45:00,60.0,53.5,30.01,NNW,338,3.0,5.0,79,0.00,,BKN035,0.00,VWS V15.00,2017-05-27 00:45:00,
2017-05-26 17:50:00,60.2,53.3,30.01,West,271,6.0,10.0,78,0.00,,BKN035,0.00,VWS V15.00,2017-05-27 00:50:00,
2017-05-26 17:55:00,60.1,52.9,30.00,WNW,300,5.0,10.0,77,0.00,,BKN035,0.00,VWS V15.00,2017-05-27 00:55:00,
2017-05-26 18:00:00,59.4,52.9,30.01,West,277,5.0,7.0,79,0.00,,BKN035,0.00,VWS V15.00,2017-05-27 01:00:00,
2017-05-26 18:05:00,59.4,52.9,30.01,WNW,301,4.0,11.0,79,0.00,,BKN035,0.00,VWS V15.00,2017-05-27 01:05:00,
2017-05-26 18:10:00,59.6,52.7,30.01,West,260,7.0,11.0,78,0.00,,BKN035,0.00,VWS V15.00,2017-05-27 01:10:00,
2017-05-26 18:15:00,59.2,52.7,30.01,WNW,294,5.0,8.0,79,0.00,,BKN035,0.00,VWS V15.00,2017-05-27 01:15:00,
2017-05-26 18:20:00,59.0,53.2,30.00,WSW,253,4.0,10.0,81,0.00,,BKN035,0.00,VWS V15.00,2017-05-27 01:20:00,
2017-05-26 18:25:00,58.8,53.0,30.01,West,278,5.0,12.0,81,0.00,,BKN035,0.00,VWS V15.00,2017-05-27 01:25:00,
2017-05-26 18:31:00,58.7,53.2,30.00,WNW,288,4.0,9.0,82,0.00,,BKN035,0.00,VWS V15.00,2017-05-27 01:31:00,
2017-05-26 18:35:00,58.4,52.9,30.01,West,273,5.0,9.0,82,0.00,,BKN035,0.00,VWS V15.00,2017-05-27 01:35:00,
2017-05-26 18:41:00,58.4,53.3,30.01,WNW,302,6.0,9.0,83,0.00,,BKN035,0.00,VWS V15.00,2017-05-27 01:41:00,
2017-05-26 18:45:00,58.3,53.2,30.01,West,267,4.0,5.0,83,0.00,,SCT050,0.00,VWS V15.00,2017-05-27 01:45:00,
2017-05-26 18:50:00,58.0,52.5,30.01,WNW,288,3.0,8.0,82,0.00,,SCT050,0.00,VWS V15.00,2017-05-27 01:50:00,
2017-05-26 18:52:00,58.0,52.9,30.01,West,274,6.0,8.0,83,0.00,,SCT050,0.00,VWS V15.00,2017-05-27 01:52:00,
2017-05-26 18:57:00,57.6,52.5,30.01,WNW,301,3.0,9.0,83,0.00,,SCT050,0.00,VWS V15.00,2017-05-27 01:57:00,
2017-05-26 19:02:00,57.3,52.5,30.01,WNW,297,3.0,6.0,84,0.00,,SCT050,0.00,VWS V15.00,2017-05-27 02:02:00,
2017-05-26 19:07:00,57.0,52.5,30.01,West,278,6.0,9.0,85,0.00,,SCT050,0.00,VWS V15.00,2017-05-27 02:07:00,
2017-05-26 19:12:00,56.7,52.2,30.01,West,278,5.0,9.0,85,0.00,,SCT050,0.00,VWS V15.00,2017-05-27 02:12:00,
2017-05-26 19:17:00,56.5,52.0,30.01,West,272,3.0,7.0,85,0.00,,SCT050,0.00,VWS V15.00,2017-05-27 02:17:00,
2017-05-26 19:22:00,56.4,52.3,30.01,West,263,5.0,8.0,86,0.00,,SCT050,0.00,VWS V15.00,2017-05-27 02:22:00,
2017-05-26 19:27:00,56.2,52.1,30.01,West,266,5.0,8.0,86,0.00,,SCT050,0.00,VWS V15.00,2017-05-27 02:27:00,
2017-05-26 19:32:00,56.0,52.2,30.01,West,276,4.0,7.0,87,0.00,,SCT050,0.00,VWS V15.00,2017-05-27 02:32:00,
2017-05-26 19:37:00,55.6,51.8,30.01,WNW,292,4.0,7.0,87,0.00,,SCT050,0.00,VWS V15.00,2017-05-27 02:37:00,
2017-05-26 19:42:00,55.3,51.8,30.01,WNW,284,4.0,7.0,88,0.00,,SCT050,0.00,VWS V15.00,2017-05-27 02:42:00,
2017-05-26 19:47:00,55.1,51.6,30.01,WNW,285,2.0,5.0,88,0.00,,FEW050,0.00,VWS V15.00,2017-05-27 02:47:00,
2017-05-26 19:52:00,54.7,51.2,30.02,WNW,295,3.0,9.0,88,0.00,,FEW050,0.00,VWS V15.00,2017-05-27 02:52:00,
2017-05-26 19:57:00,54.5,51.0,30.02,WNW,291,3.0,9.0,88,0.00,,FEW050,0.00,VWS V15.00,2017-05-27 02:57:00,
2017-05-26 20:02:00,54.2,51.0,30.02,West,273,7.0,7.0,89,0.00,,FEW050,0.00,VWS V15.00,2017-05-27 03:02:00,
2017-05-26 20:07:00,53.9,50.7,30.02,West,276,5.0,7.0,89,0.00,,FEW050,0.00,VWS V15.00,2017-05-27 03:07:00,